Yangliuqing, China
Current Conditions -  °F | °C
As of 4:30 AM on Tuesday 27 Jan 2015 (Local Time) from ZBTJ Reporting Station
Clear Clear  
Wind Chill:   Ceiling: Unl
Heat Index: 21°   Visibility: 6mi
Dew Point: -6°   Wind: 13mph
Humidity: 30%   Direction: 340°NNW
Pressure: 30.59"   Gusts: NA
Location:  39.13°N, 116.99°E
Report Text: ZBTJ 262030Z 34006MPS CAVOK M06/M21 Q1036 NOSIG
Loading
Personal Weather Stations






























Interactive Weather Map New forecast layout! Learn more

10-Day Weather Forecast

Advertisements
Track Severe Weather on mobile